Flight Track Log - Related Links

Times and Time Zones

All times are in EDT time to prevent confusion due to time zone crossing. See the CDG1158 flight status page for this flight to view local times or setup timezone preferences in your user account.

Time Position Orientation Groundspeed Altitude Reporting Facility
EDT Latitude Longitude Course Direction KTS MPH feet Rate Location/Type
Sun 05:22:00 AM 37.4136 117.1109 351° North  Level Estimated
Sun 05:23:00 AM 37.4693 117.1003 351° North  Level Estimated
Sun 05:24:00 AM 37.5168 117.0912 351° North  Level Estimated
Sun 05:25:00 AM 37.5644 117.0822 351° North  Level Estimated
Sun 05:26:00 AM 37.6119 117.0731 351° North  Level Estimated
Sun 05:27:00 AM 37.6594 117.0640 351° North  Level Estimated
Sun 05:28:00 AM 37.7069 117.0549 351° North  Level Estimated
Sun 05:29:00 AM 37.7544 117.0458 351° North  Level Estimated
Sun 05:30:00 AM 37.8019 117.0367 351° North  Level Estimated
Sun 05:31:00 AM 37.8494 117.0275 351° North  Level Estimated
Sun 05:32:00 AM 37.8969 117.0184 351° North  Level Estimated
Sun 05:33:00 AM 37.9444 117.0092 351° North  Level Estimated
Sun 05:34:00 AM 37.9919 117.0000 351° North  Level Estimated
Sun 05:35:00 AM 38.0394 116.9909 351° North  Level Estimated
Sun 05:36:00 AM 38.0869 116.9817 351° North  Level Estimated
Sun 05:37:00 AM 38.1344 116.9725 351° North  Level Estimated
Sun 05:38:00 AM 38.1819 116.9632 351° North  Level Estimated
Sun 05:39:00 AM 38.2294 116.9540 351° North  Level Estimated
Sun 05:40:00 AM 38.2769 116.9448 351° North  Level Estimated
Sun 05:41:00 AM 38.3244 116.9355 351° North  Level Estimated
Sun 05:42:00 AM 38.3719 116.9262 351° North  Level Estimated
Sun 05:43:00 AM 38.4194 116.9170 351° North  Level Estimated
Sun 05:44:00 AM 38.4669 116.9077 351° North  Level Estimated
Sun 05:45:00 AM 38.5144 116.8984 351° North  Level Estimated
Sun 05:46:00 AM 38.5619 116.8891 351° North  Level Estimated
Sun 05:47:00 AM 38.6094 116.8797 351° North  Level Estimated
Sun 05:48:00 AM 38.6569 116.8704 351° North  Level Estimated
Sun 05:49:00 AM 38.7044 116.8611 351° North  Level Estimated
Sun 05:50:00 AM 38.7519 116.8517 351° North  Level Estimated
Sun 05:51:00 AM 38.7994 116.8423 351° North  Level Estimated
Sun 05:52:00 AM 38.8469 116.8329 351° North  Level Estimated
Sun 05:53:00 AM 38.8943 116.8235 351° North  Level Estimated
Sun 05:54:00 AM 38.9418 116.8141 351° North  Level Estimated
Sun 05:55:00 AM 38.9893 116.8047 351° North  Level Estimated
Sun 05:56:00 AM 39.0368 116.7952 351° North  Level Estimated
Sun 05:57:00 AM 39.0843 116.7858 351° North  Level Estimated
Sun 05:58:00 AM 39.1318 116.7763 351° North  Level Estimated
Sun 05:59:00 AM 39.1793 116.7669 351° North  Level Estimated
Sun 06:00:00 AM 39.2495 116.7528 351° North  Level Estimated
Sun 06:01:00 AM 39.3197 116.7388 351° North  Level Estimated
Sun 06:02:00 AM 39.3899 116.7247 351° North  Level Estimated
Sun 06:03:00 AM 39.4600 116.7105 351° North  Level Estimated

Login

Don't have an account? Register now (free) for customized features, flight alerts, and more!